createdAt,value
2022-10-22T00:01:05.480Z,71.91
2022-10-22T00:03:32.113Z,71.90
2022-10-22T00:05:58.843Z,73.45
2022-10-22T00:08:25.580Z,72.17
2022-10-22T00:10:52.925Z,71.77
2022-10-22T00:13:20.396Z,72.58
2022-10-22T00:15:47.122Z,70.86
2022-10-22T00:18:14.180Z,72.58
2022-10-22T00:20:40.840Z,72.11
2022-10-22T00:23:07.502Z,71.65
2022-10-22T00:25:35.791Z,73.26
2022-10-22T00:28:03.584Z,73.48
2022-10-22T00:30:30.269Z,71.90
2022-10-22T00:32:56.831Z,72.92
2022-10-22T00:35:23.510Z,75.81
2022-10-22T00:37:50.228Z,74.01
2022-10-22T00:40:16.898Z,74.04
2022-10-22T00:42:43.773Z,73.38
2022-10-22T00:45:10.639Z,73.79
2022-10-22T00:47:42.930Z,74.96
2022-10-22T00:50:16.337Z,75.11
2022-10-22T00:52:44.191Z,73.57
2022-10-22T00:55:11.680Z,73.10
2022-10-22T00:57:38.495Z,74.34
2022-10-22T01:00:07.081Z,74.12
2022-10-22T01:02:34.215Z,72.81
2022-10-22T01:05:00.863Z,73.66
2022-10-22T01:07:27.560Z,72.30
2022-10-22T01:10:23.389Z,72.08
2022-10-22T01:13:13.920Z,71.88
2022-10-22T01:15:45.741Z,72.82
2022-10-22T01:18:32.024Z,74.04
2022-10-22T01:21:21.228Z,72.24
2022-10-22T01:24:03.005Z,72.17
2022-10-22T01:26:41.898Z,72.19
2022-10-22T01:29:24.565Z,70.89
2022-10-22T01:32:15.652Z,70.63
2022-10-22T01:34:46.965Z,70.62
2022-10-22T01:37:15.597Z,71.34
2022-10-22T01:39:45.367Z,71.36
2022-10-22T01:42:13.472Z,70.52
2022-10-22T01:44:40.134Z,70.57
2022-10-22T01:47:50.453Z,72.11
2022-10-22T01:50:27.397Z,70.79
2022-10-22T01:53:02.454Z,71.51
2022-10-22T01:55:34.636Z,71.10
2022-10-22T01:58:19.503Z,71.22
2022-10-22T02:01:07.372Z,70.81
2022-10-22T02:03:45.132Z,70.37
2022-10-22T02:06:19.037Z,70.67
2022-10-22T02:08:48.630Z,70.24
2022-10-22T02:11:15.954Z,70.28
2022-10-22T02:13:47.085Z,71.29
2022-10-22T02:16:20.947Z,70.30
2022-10-22T02:18:52.718Z,71.28
2022-10-22T02:21:19.939Z,70.31
2022-10-22T02:23:46.869Z,71.37
2022-10-22T02:26:25.400Z,72.06
2022-10-22T02:28:58.160Z,71.82
2022-10-22T02:31:31.150Z,73.58
2022-10-22T02:34:04.830Z,72.78
2022-10-22T02:36:32.357Z,72.01
2022-10-22T02:38:59.865Z,72.68
2022-10-22T02:41:26.908Z,72.24
2022-10-22T02:43:55.162Z,71.24
2022-10-22T02:46:22.103Z,71.10
2022-10-22T02:48:48.693Z,71.05
2022-10-22T02:51:15.973Z,70.32
2022-10-22T02:53:42.765Z,71.72
2022-10-22T02:56:09.468Z,71.58
2022-10-22T02:58:36.071Z,70.81
2022-10-22T03:01:02.805Z,70.20
2022-10-22T03:03:29.400Z,70.28
2022-10-22T03:05:56.127Z,70.33
2022-10-22T03:08:23.029Z,70.38
2022-10-22T03:10:49.661Z,70.12
2022-10-22T03:13:16.252Z,70.21
2022-10-22T03:15:42.900Z,69.36
2022-10-22T03:18:09.774Z,69.78
2022-10-22T03:20:36.449Z,69.04
2022-10-22T03:23:03.548Z,69.36
2022-10-22T03:25:34.445Z,69.63
2022-10-22T03:28:06.977Z,69.38
2022-10-22T03:30:33.597Z,69.02
2022-10-22T03:33:00.189Z,69.74
2022-10-22T03:35:27.127Z,70.99
2022-10-22T03:37:54.756Z,70.86
2022-10-22T03:40:21.588Z,71.62
2022-10-22T03:42:48.244Z,71.34
2022-10-22T03:45:14.896Z,71.17
2022-10-22T03:47:41.802Z,71.25
2022-10-22T03:50:09.316Z,70.83
2022-10-22T03:52:40.069Z,70.71
2022-10-22T03:55:08.078Z,71.50
2022-10-22T03:57:34.944Z,70.94
2022-10-22T04:00:01.708Z,70.21
2022-10-22T04:02:28.316Z,71.32
2022-10-22T04:04:54.960Z,71.72
2022-10-22T04:07:21.554Z,71.63
2022-10-22T04:09:48.133Z,72.06
2022-10-22T04:12:14.732Z,72.03
2022-10-22T04:14:41.412Z,72.93
2022-10-22T04:17:07.986Z,72.83
2022-10-22T04:19:34.674Z,72.03
2022-10-22T04:22:01.548Z,71.44
2022-10-22T04:24:29.956Z,70.82
2022-10-22T04:26:56.726Z,72.34
2022-10-22T04:29:24.246Z,72.19
2022-10-22T04:31:50.780Z,71.66
2022-10-22T04:34:17.536Z,72.10
2022-10-22T04:36:44.106Z,72.82
2022-10-22T04:39:10.756Z,73.68
2022-10-22T04:41:39.211Z,74.76
2022-10-22T04:44:09.963Z,74.47
2022-10-22T04:46:40.229Z,74.06
2022-10-22T04:49:06.832Z,74.03
2022-10-22T04:51:33.498Z,72.74
2022-10-22T04:54:00.122Z,73.31
2022-10-22T04:56:29.811Z,73.81
2022-10-22T04:59:02.314Z,72.80
2022-10-22T05:01:31.892Z,72.66
2022-10-22T05:04:00.680Z,71.28
2022-10-22T05:06:28.717Z,71.22
2022-10-22T05:08:58.346Z,72.06
2022-10-22T05:11:28.372Z,71.96
2022-10-22T05:13:59.296Z,73.08
2022-10-22T05:16:27.607Z,71.00
2022-10-22T05:18:54.237Z,69.22
2022-10-22T05:21:21.652Z,68.65
2022-10-22T05:23:50.176Z,68.71
2022-10-22T05:26:19.257Z,68.71
2022-10-22T05:28:49.733Z,68.92
2022-10-22T05:31:17.198Z,70.18
2022-10-22T05:33:45.582Z,69.90
2022-10-22T05:36:21.582Z,68.36
2022-10-22T05:38:49.455Z,69.38
2022-10-22T05:41:19.152Z,68.96
2022-10-22T05:43:46.135Z,68.18
2022-10-22T05:49:30.450Z,68.78
2022-10-22T05:51:57.138Z,70.01
2022-10-22T05:54:23.760Z,70.64
2022-10-22T05:56:50.502Z,70.05
2022-10-22T05:59:17.171Z,70.08
2022-10-22T06:01:43.978Z,70.07
2022-10-22T06:04:12.920Z,69.21
2022-10-22T06:06:42.820Z,68.97
2022-10-22T06:09:31.993Z,69.39
2022-10-22T06:11:59.375Z,69.59
2022-10-22T06:14:26.798Z,68.84
2022-10-22T06:16:53.644Z,68.70
2022-10-22T06:19:23.352Z,70.80
2022-10-22T06:21:50.014Z,69.55
2022-10-22T06:24:16.859Z,69.72
2022-10-22T06:26:43.914Z,69.93
2022-10-22T06:29:11.052Z,70.58
2022-10-22T06:31:37.852Z,70.78
2022-10-22T06:34:06.439Z,69.94
2022-10-22T06:36:33.242Z,69.70
2022-10-22T06:38:59.860Z,70.65
2022-10-22T06:41:28.794Z,69.22
2022-10-22T06:43:57.560Z,69.04
2022-10-22T06:46:25.083Z,70.47
2022-10-22T06:48:56.448Z,70.29
2022-10-22T06:51:23.541Z,70.70
2022-10-22T06:53:50.683Z,70.60
2022-10-22T06:56:20.024Z,70.13
2022-10-22T06:58:51.230Z,70.07
2022-10-22T07:01:21.261Z,70.20
2022-10-22T07:03:51.614Z,69.91
2022-10-22T07:06:18.763Z,69.58
2022-10-22T07:08:45.496Z,69.69
2022-10-22T07:11:17.427Z,69.54
2022-10-22T07:13:44.936Z,70.17
2022-10-22T07:16:12.080Z,69.45
2022-10-22T07:18:39.970Z,69.85
2022-10-22T07:21:07.926Z,69.79
2022-10-22T07:23:34.998Z,70.13
2022-10-22T07:26:02.846Z,71.45
2022-10-22T07:28:30.634Z,69.76
2022-10-22T07:30:57.277Z,69.54
2022-10-22T07:33:23.897Z,69.94
2022-10-22T07:35:50.567Z,70.39
2022-10-22T07:38:17.366Z,70.70
2022-10-22T07:40:43.976Z,70.33
2022-10-22T07:43:10.586Z,70.58
2022-10-22T07:45:37.276Z,71.01
2022-10-22T07:48:04.676Z,72.08
2022-10-22T07:50:31.267Z,70.98
2022-10-22T07:52:58.373Z,69.94
2022-10-22T07:55:25.631Z,69.60
2022-10-22T07:57:52.285Z,70.86
2022-10-22T08:00:21.712Z,71.22
2022-10-22T08:02:51.207Z,70.84
2022-10-22T08:05:18.067Z,70.75
2022-10-22T08:07:44.960Z,71.02
2022-10-22T08:10:12.377Z,70.78
2022-10-22T08:12:39.628Z,69.08
2022-10-22T08:15:07.445Z,68.71
2022-10-22T08:17:34.403Z,69.70
2022-10-22T08:20:00.972Z,68.48
2022-10-22T08:22:27.723Z,68.91
2022-10-22T08:24:54.381Z,68.76
2022-10-22T08:27:21.092Z,68.83
2022-10-22T08:29:47.743Z,69.32
2022-10-22T08:32:14.482Z,69.08
2022-10-22T08:34:41.215Z,68.91
2022-10-22T08:37:08.639Z,68.79
2022-10-22T08:39:35.657Z,68.77
2022-10-22T08:42:11.340Z,69.22
2022-10-22T08:44:54.966Z,69.16
2022-10-22T08:47:48.187Z,68.58
2022-10-22T08:50:23.059Z,68.17
2022-10-22T08:52:57.651Z,68.42
2022-10-22T08:55:25.574Z,68.62
2022-10-22T08:58:16.010Z,69.77
2022-10-22T09:00:46.554Z,69.68
2022-10-22T09:03:49.509Z,68.15
2022-10-22T09:06:22.059Z,68.58
2022-10-22T09:08:49.765Z,69.07
2022-10-22T09:11:26.306Z,68.23
2022-10-22T09:13:55.456Z,68.93
2022-10-22T09:16:37.266Z,67.73
2022-10-22T09:19:41.578Z,67.09
2022-10-22T09:22:14.066Z,67.61
2022-10-22T09:24:46.334Z,67.37
2022-10-22T09:27:28.682Z,66.62
2022-10-22T09:29:55.417Z,66.67
2022-10-22T09:32:22.427Z,65.17
2022-10-22T09:34:50.427Z,64.63
2022-10-22T09:37:19.489Z,65.08
2022-10-22T09:39:52.658Z,63.83
2022-10-22T09:42:21.209Z,63.64
2022-10-22T09:44:56.382Z,62.21
2022-10-22T09:47:43.539Z,63.51
2022-10-22T09:50:27.759Z,62.39
2022-10-22T09:53:00.317Z,61.88
2022-10-22T09:55:27.438Z,61.94
2022-10-22T09:58:00.404Z,61.82
2022-10-22T10:00:28.418Z,61.10
2022-10-22T10:02:58.254Z,59.45
2022-10-22T10:05:31.504Z,59.61
2022-10-22T10:07:59.387Z,59.22
2022-10-22T10:10:41.830Z,60.13
2022-10-22T10:13:42.637Z,57.97
2022-10-22T10:16:27.841Z,57.87
2022-10-22T10:18:54.478Z,58.03
2022-10-22T10:21:44.172Z,57.46
2022-10-22T10:24:22.710Z,56.93
2022-10-22T10:26:58.523Z,58.09
2022-10-22T10:32:27.230Z,56.12
2022-10-22T10:35:31.331Z,56.27
2022-10-22T10:38:28.772Z,53.93
2022-10-22T10:41:08.288Z,53.64
2022-10-22T10:43:53.625Z,56.58
2022-10-22T10:46:50.006Z,53.13
2022-10-22T10:49:29.936Z,53.24
2022-10-22T10:52:05.652Z,53.08
2022-10-22T10:55:02.839Z,52.14
2022-10-22T10:57:57.300Z,52.22
2022-10-22T11:00:24.062Z,52.06
2022-10-22T11:03:28.651Z,52.15
2022-10-22T11:06:02.104Z,51.90
2022-10-22T11:08:36.396Z,51.59
2022-10-22T11:11:11.659Z,51.23
2022-10-22T11:13:53.428Z,51.59
2022-10-22T11:16:40.204Z,50.04
2022-10-22T11:19:46.535Z,50.34
2022-10-22T11:22:16.180Z,50.49
2022-10-22T11:25:02.722Z,50.15
2022-10-22T11:27:48.349Z,51.25
2022-10-22T11:30:18.723Z,49.46
2022-10-22T11:33:07.307Z,48.60
2022-10-22T11:35:35.723Z,50.39
2022-10-22T11:38:06.448Z,49.53
2022-10-22T11:40:37.054Z,48.48
2022-10-22T11:43:05.085Z,49.40
2022-10-22T11:45:40.832Z,46.90
2022-10-22T11:48:10.540Z,45.64
2022-10-22T11:50:48.392Z,45.60
2022-10-22T11:53:21.573Z,47.98
2022-10-22T11:55:51.838Z,48.91
2022-10-22T11:58:42.811Z,47.26
2022-10-22T12:01:09.491Z,47.81
2022-10-22T12:03:43.969Z,46.44
2022-10-22T12:06:15.506Z,46.47
2022-10-22T12:08:43.924Z,46.55
2022-10-22T12:11:10.553Z,47.07
2022-10-22T12:14:01.600Z,48.71
2022-10-22T12:16:55.649Z,49.13
2022-10-22T12:19:23.424Z,50.48
2022-10-22T12:21:56.210Z,51.99
2022-10-22T12:24:25.950Z,51.53
2022-10-22T12:26:52.929Z,51.83
2022-10-22T12:29:22.744Z,51.28
2022-10-22T12:31:49.902Z,53.07
2022-10-22T12:34:22.279Z,52.07
2022-10-22T12:36:50.949Z,52.44
2022-10-22T12:39:25.295Z,52.17
2022-10-22T12:41:53.980Z,53.26
2022-10-22T12:44:20.611Z,52.64
2022-10-22T12:46:53.089Z,52.68
2022-10-22T12:49:36.535Z,51.61
2022-10-22T12:52:13.990Z,51.52
2022-10-22T12:54:40.779Z,51.02
2022-10-22T12:57:13.209Z,50.63
2022-10-22T12:59:45.906Z,48.80
2022-10-22T13:02:24.642Z,47.52
2022-10-22T13:05:27.662Z,46.29
2022-10-22T13:08:03.364Z,45.99
2022-10-22T13:10:35.917Z,46.22
2022-10-22T13:13:08.821Z,45.50
2022-10-22T13:15:38.447Z,48.05
2022-10-22T13:18:15.080Z,48.13
2022-10-22T13:20:57.783Z,50.30
2022-10-22T13:23:28.019Z,51.22
2022-10-22T13:26:00.422Z,52.49
2022-10-22T13:28:28.547Z,52.24
2022-10-22T13:31:24.132Z,52.58
2022-10-22T13:33:55.664Z,52.10
2022-10-22T13:36:23.352Z,52.31
2022-10-22T13:38:50.111Z,50.60
2022-10-22T13:41:20.750Z,51.35
2022-10-22T13:43:47.752Z,51.69
2022-10-22T13:46:14.576Z,52.27
2022-10-22T13:48:41.515Z,51.61
2022-10-22T13:51:15.336Z,53.54
2022-10-22T13:53:43.635Z,55.60
2022-10-22T13:56:15.532Z,54.04
2022-10-22T13:58:43.419Z,54.68
2022-10-22T14:01:25.477Z,53.87
2022-10-22T14:03:58.009Z,54.78
2022-10-22T14:06:28.830Z,54.80
2022-10-22T14:08:58.644Z,54.84
2022-10-22T14:11:30.817Z,54.92
2022-10-22T14:13:57.419Z,55.32
2022-10-22T14:16:26.657Z,55.68
2022-10-22T14:18:55.140Z,55.50
2022-10-22T14:21:21.884Z,56.89
2022-10-22T14:23:51.136Z,57.24
2022-10-22T14:26:31.433Z,57.31
2022-10-22T14:29:14.140Z,55.47
2022-10-22T14:31:43.919Z,55.47
2022-10-22T14:34:13.640Z,57.55
2022-10-22T14:36:40.354Z,58.48
2022-10-22T14:39:07.023Z,59.00
2022-10-22T14:41:33.863Z,58.24
2022-10-22T14:44:01.710Z,57.12
2022-10-22T14:46:28.475Z,58.54
2022-10-22T14:48:55.164Z,57.25
2022-10-22T14:51:21.936Z,56.54
2022-10-22T14:53:49.061Z,56.08
2022-10-22T14:56:18.573Z,57.27
2022-10-22T14:58:45.815Z,57.61
2022-10-22T15:01:12.464Z,57.80
2022-10-22T15:03:39.106Z,59.25
2022-10-22T15:06:06.043Z,59.27
2022-10-22T15:08:33.062Z,60.11
2022-10-22T15:11:02.324Z,61.07
2022-10-22T15:13:29.844Z,61.83
2022-10-22T15:15:57.448Z,60.82
2022-10-22T15:18:24.810Z,60.63
2022-10-22T15:20:55.651Z,61.42
2022-10-22T15:23:22.489Z,61.43
2022-10-22T15:25:49.075Z,61.43
2022-10-22T15:28:15.720Z,59.76
2022-10-22T15:30:42.388Z,59.34
2022-10-22T15:33:09.073Z,60.11
2022-10-22T15:35:35.676Z,61.34
2022-10-22T15:38:02.642Z,62.36
2022-10-22T15:40:29.192Z,61.88
2022-10-22T15:42:55.835Z,63.20
2022-10-22T15:45:24.166Z,62.61
2022-10-22T15:47:50.776Z,63.72
2022-10-22T15:50:17.606Z,63.88
2022-10-22T15:52:44.277Z,63.34
2022-10-22T15:57:43.175Z,61.57
2022-10-22T16:00:10.701Z,61.75
2022-10-22T16:02:41.775Z,62.10
2022-10-22T16:05:08.903Z,61.90
2022-10-22T16:07:35.564Z,62.19
2022-10-22T16:10:02.176Z,62.73
2022-10-22T16:12:28.762Z,62.59
2022-10-22T16:14:55.395Z,62.44
2022-10-22T16:17:22.033Z,62.30
2022-10-22T16:19:48.655Z,62.91
2022-10-22T16:22:15.814Z,63.02
2022-10-22T16:24:43.144Z,62.66
2022-10-22T16:27:10.450Z,62.42
2022-10-22T16:29:37.895Z,62.18
2022-10-22T16:32:04.729Z,64.00
2022-10-22T16:34:31.341Z,64.00
2022-10-22T16:36:57.965Z,65.47
2022-10-22T16:39:24.749Z,65.49
2022-10-22T16:41:51.813Z,65.36
2022-10-22T16:44:18.518Z,65.52
2022-10-22T16:46:45.080Z,64.64
2022-10-22T16:49:11.795Z,64.86
2022-10-22T16:51:39.437Z,66.55
2022-10-22T16:54:09.676Z,64.74
2022-10-22T16:56:38.970Z,65.03
2022-10-22T16:59:06.423Z,64.39
2022-10-22T17:01:36.764Z,63.39
2022-10-22T17:04:06.309Z,63.59
2022-10-22T17:06:32.909Z,62.87
2022-10-22T17:08:59.671Z,62.76
2022-10-22T17:11:29.882Z,62.73
2022-10-22T17:13:56.523Z,62.39
2022-10-22T17:16:24.761Z,63.63
2022-10-22T17:18:53.888Z,63.86
2022-10-22T17:21:21.577Z,64.06
2022-10-22T17:23:48.464Z,63.55
2022-10-22T17:26:19.593Z,63.43
2022-10-22T17:28:46.903Z,63.20
2022-10-22T17:31:24.155Z,63.43
2022-10-22T17:33:52.917Z,63.86
2022-10-22T17:36:21.381Z,63.45
2022-10-22T17:38:50.646Z,63.82
2022-10-22T17:41:20.546Z,66.30
2022-10-22T17:43:47.943Z,64.52
2022-10-22T17:46:19.224Z,64.03
2022-10-22T17:48:52.510Z,65.25
2022-10-22T17:51:20.247Z,64.06
2022-10-22T17:53:47.404Z,63.83
2022-10-22T17:56:16.441Z,64.25
2022-10-22T17:58:43.236Z,63.83
2022-10-22T18:01:37.709Z,63.76
2022-10-22T18:04:08.046Z,64.01
2022-10-22T18:06:35.262Z,63.48
2022-10-22T18:09:06.936Z,63.49
2022-10-22T18:11:36.484Z,63.36
2022-10-22T18:14:03.720Z,63.74
2022-10-22T18:16:30.489Z,65.10
2022-10-22T18:18:57.587Z,64.84
2022-10-22T18:21:26.798Z,64.08
2022-10-22T18:23:54.148Z,63.79
2022-10-22T18:26:24.359Z,64.06
2022-10-22T18:28:53.465Z,63.96
2022-10-22T18:31:22.779Z,63.60
2022-10-22T18:33:49.611Z,63.98
2022-10-22T18:36:19.440Z,63.91
2022-10-22T18:38:53.640Z,65.54
2022-10-22T18:41:21.134Z,64.93
2022-10-22T18:43:51.443Z,64.26
2022-10-22T18:46:18.863Z,64.73
2022-10-22T18:48:45.660Z,63.59
2022-10-22T18:51:13.947Z,63.28
2022-10-22T18:53:40.782Z,63.44
2022-10-22T18:56:09.315Z,64.40
2022-10-22T18:58:40.823Z,63.49
2022-10-22T19:01:13.207Z,63.20
2022-10-22T19:03:39.998Z,63.24
2022-10-22T19:06:07.236Z,63.04
2022-10-22T19:08:35.924Z,62.61
2022-10-22T19:11:08.456Z,62.67
2022-10-22T19:13:35.083Z,62.83
2022-10-22T19:16:02.779Z,63.38
2022-10-22T19:18:29.431Z,63.29
2022-10-22T19:21:00.880Z,62.45
2022-10-22T19:23:30.308Z,62.97
2022-10-22T19:26:05.841Z,63.76
2022-10-22T19:28:33.143Z,62.61
2022-10-22T19:31:00.066Z,62.53
2022-10-22T19:33:27.693Z,62.67
2022-10-22T19:35:54.292Z,62.06
2022-10-22T19:38:21.047Z,63.22
2022-10-22T19:40:47.678Z,63.23
2022-10-22T19:43:18.153Z,62.52
2022-10-22T19:45:45.689Z,62.05
2022-10-22T19:48:12.300Z,62.56
2022-10-22T19:50:39.106Z,62.50
2022-10-22T19:53:05.763Z,63.37
2022-10-22T19:55:32.401Z,63.68
2022-10-22T19:57:59.024Z,63.47
2022-10-22T20:00:25.769Z,62.23
2022-10-22T20:02:52.336Z,63.02
2022-10-22T20:05:19.126Z,63.40
2022-10-22T20:07:45.794Z,63.02
2022-10-22T20:10:12.506Z,62.83
2022-10-22T20:12:39.194Z,62.63
2022-10-22T20:15:06.492Z,61.96
2022-10-22T20:17:33.968Z,61.81
2022-10-22T20:20:00.731Z,62.73
2022-10-22T20:22:27.295Z,63.50
2022-10-22T20:24:54.354Z,63.50
2022-10-22T20:27:21.509Z,62.55
2022-10-22T20:29:48.116Z,62.17
2022-10-22T20:32:14.752Z,61.12
2022-10-22T20:34:42.519Z,61.86
2022-10-22T20:37:09.279Z,60.59
2022-10-22T20:39:35.886Z,61.39
2022-10-22T20:42:02.664Z,61.37
2022-10-22T20:44:29.310Z,60.53
2022-10-22T20:49:27.691Z,60.42
2022-10-22T20:51:54.268Z,60.56
2022-10-22T20:54:20.900Z,61.83
2022-10-22T20:56:48.063Z,61.49
2022-10-22T20:59:15.368Z,61.81
2022-10-22T21:01:48.764Z,61.56
2022-10-22T21:04:16.642Z,61.02
2022-10-22T21:06:43.400Z,60.89
2022-10-22T21:09:12.511Z,60.60
2022-10-22T21:11:40.399Z,60.69
2022-10-22T21:14:09.372Z,61.61
2022-10-22T21:16:39.870Z,61.71
2022-10-22T21:19:06.488Z,62.19
2022-10-22T21:21:33.056Z,61.20
2022-10-22T21:23:59.718Z,61.68
2022-10-22T21:26:26.423Z,61.44
2022-10-22T21:28:53.349Z,62.81
2022-10-22T21:31:25.917Z,62.36
2022-10-22T21:33:53.873Z,62.28
2022-10-22T21:36:23.407Z,61.59
2022-10-22T21:38:53.831Z,62.59
2022-10-22T21:41:23.670Z,62.44
2022-10-22T21:43:51.130Z,63.30
2022-10-22T21:46:22.299Z,62.93
2022-10-22T21:49:02.916Z,62.72
2022-10-22T21:51:31.886Z,63.33
2022-10-22T21:53:58.820Z,63.39
2022-10-22T21:56:28.100Z,63.18
2022-10-22T21:58:55.213Z,62.32
2022-10-22T22:01:22.540Z,62.70
2022-10-22T22:03:50.559Z,63.16
2022-10-22T22:06:22.513Z,62.98
2022-10-22T22:08:52.524Z,63.63
2022-10-22T22:11:21.854Z,63.87
2022-10-22T22:13:48.985Z,63.80
2022-10-22T22:16:27.084Z,62.93
2022-10-22T22:18:55.980Z,62.90
2022-10-22T22:21:22.522Z,62.18
2022-10-22T22:23:50.274Z,63.40
2022-10-22T22:26:24.107Z,63.95
2022-10-22T22:28:53.744Z,63.10
2022-10-22T22:31:38.735Z,62.80
2022-10-22T22:34:10.172Z,63.83
2022-10-22T22:36:42.628Z,62.92
2022-10-22T22:39:13.205Z,62.85
2022-10-22T22:41:41.119Z,62.69
2022-10-22T22:44:07.795Z,62.77
2022-10-22T22:46:34.620Z,63.39
2022-10-22T22:49:01.223Z,63.55
2022-10-22T22:51:28.056Z,64.26
2022-10-22T22:53:54.870Z,64.25
2022-10-22T22:56:23.904Z,63.20
2022-10-22T22:58:50.741Z,63.01
2022-10-22T23:01:22.352Z,63.92
2022-10-22T23:03:56.324Z,63.36
2022-10-22T23:06:25.404Z,64.39
2022-10-22T23:08:53.161Z,63.30
2022-10-22T23:11:21.430Z,62.78
2022-10-22T23:13:51.429Z,63.25
2022-10-22T23:16:21.442Z,63.28
2022-10-22T23:18:49.404Z,62.85
2022-10-22T23:21:19.712Z,63.19
2022-10-22T23:23:51.829Z,62.87
2022-10-22T23:26:22.664Z,62.68
2022-10-22T23:28:49.617Z,62.21
2022-10-22T23:31:18.329Z,61.96
2022-10-22T23:33:45.719Z,62.07
2022-10-22T23:36:12.965Z,61.34
2022-10-22T23:38:40.760Z,62.40
2022-10-22T23:41:08.065Z,61.77
2022-10-22T23:43:38.701Z,62.99
2022-10-22T23:46:07.390Z,63.67
2022-10-22T23:48:34.668Z,62.97
2022-10-22T23:51:13.244Z,62.81
2022-10-22T23:53:41.283Z,62.61
2022-10-22T23:56:18.140Z,62.80
2022-10-22T23:58:44.983Z,63.28
